sensor_id;sensor_type;location;lat;lon;timestamp;temperature;humidity
24814;DHT22;12904;50.088;11.414;2023-08-24T00:01:36;16.50;99.90
24814;DHT22;12904;50.088;11.414;2023-08-24T00:04:02;16.40;99.90
24814;DHT22;12904;50.088;11.414;2023-08-24T00:06:28;16.40;99.90
24814;DHT22;12904;50.088;11.414;2023-08-24T00:08:53;16.40;99.90
24814;DHT22;12904;50.088;11.414;2023-08-24T00:11:19;16.30;99.90
24814;DHT22;12904;50.088;11.414;2023-08-24T00:13:45;16.30;99.90
24814;DHT22;12904;50.088;11.414;2023-08-24T00:16:18;16.30;99.90
24814;DHT22;12904;50.088;11.414;2023-08-24T00:18:44;16.30;99.90
24814;DHT22;12904;50.088;11.414;2023-08-24T00:21:10;16.30;99.90
24814;DHT22;12904;50.088;11.414;2023-08-24T00:23:36;16.20;99.90
24814;DHT22;12904;50.088;11.414;2023-08-24T00:26:02;16.20;99.90
24814;DHT22;12904;50.088;11.414;2023-08-24T00:28:27;16.20;99.90
24814;DHT22;12904;50.088;11.414;2023-08-24T00:30:53;16.20;99.90
24814;DHT22;12904;50.088;11.414;2023-08-24T00:33:19;16.20;99.90
24814;DHT22;12904;50.088;11.414;2023-08-24T00:35:44;16.10;99.90
24814;DHT22;12904;50.088;11.414;2023-08-24T00:38:10;16.10;99.90
24814;DHT22;12904;50.088;11.414;2023-08-24T00:40:36;16.10;99.90
24814;DHT22;12904;50.088;11.414;2023-08-24T00:43:02;16.00;99.90
24814;DHT22;12904;50.088;11.414;2023-08-24T00:45:27;15.90;99.90
24814;DHT22;12904;50.088;11.414;2023-08-24T00:47:55;15.90;99.90
24814;DHT22;12904;50.088;11.414;2023-08-24T00:50:21;15.90;99.90
24814;DHT22;12904;50.088;11.414;2023-08-24T00:52:47;15.90;99.90
24814;DHT22;12904;50.088;11.414;2023-08-24T00:55:13;15.90;99.90
24814;DHT22;12904;50.088;11.414;2023-08-24T00:57:40;15.80;99.90
24814;DHT22;12904;50.088;11.414;2023-08-24T01:00:08;15.80;99.90
24814;DHT22;12904;50.088;11.414;2023-08-24T01:02:36;15.80;99.90
24814;DHT22;12904;50.088;11.414;2023-08-24T01:05:02;15.80;99.90
24814;DHT22;12904;50.088;11.414;2023-08-24T01:07:30;15.80;99.90
24814;DHT22;12904;50.088;11.414;2023-08-24T01:09:56;15.70;99.90
24814;DHT22;12904;50.088;11.414;2023-08-24T01:17:35;15.70;99.90
24814;DHT22;12904;50.088;11.414;2023-08-24T01:20:01;15.60;99.90
24814;DHT22;12904;50.088;11.414;2023-08-24T01:23:04;15.60;99.90
24814;DHT22;12904;50.088;11.414;2023-08-24T01:25:38;15.50;99.90
24814;DHT22;12904;50.088;11.414;2023-08-24T01:28:06;15.50;99.90
24814;DHT22;12904;50.088;11.414;2023-08-24T01:30:34;15.50;99.90
24814;DHT22;12904;50.088;11.414;2023-08-24T01:33:02;15.40;99.90
24814;DHT22;12904;50.088;11.414;2023-08-24T01:35:28;15.40;99.90
24814;DHT22;12904;50.088;11.414;2023-08-24T01:37:54;15.40;99.90
24814;DHT22;12904;50.088;11.414;2023-08-24T01:40:26;15.40;99.90
24814;DHT22;12904;50.088;11.414;2023-08-24T01:42:56;15.40;99.90
24814;DHT22;12904;50.088;11.414;2023-08-24T01:45:27;15.30;99.90
24814;DHT22;12904;50.088;11.414;2023-08-24T01:47:55;15.30;99.90
24814;DHT22;12904;50.088;11.414;2023-08-24T01:50:22;15.40;99.90
24814;DHT22;12904;50.088;11.414;2023-08-24T01:52:48;15.30;99.90
24814;DHT22;12904;50.088;11.414;2023-08-24T01:55:17;15.30;99.90
24814;DHT22;12904;50.088;11.414;2023-08-24T01:57:43;15.30;99.90
24814;DHT22;12904;50.088;11.414;2023-08-24T02:00:08;15.30;99.90
24814;DHT22;12904;50.088;11.414;2023-08-24T02:02:35;15.20;99.90
24814;DHT22;12904;50.088;11.414;2023-08-24T02:05:01;15.20;99.90
24814;DHT22;12904;50.088;11.414;2023-08-24T02:07:28;15.20;99.90
24814;DHT22;12904;50.088;11.414;2023-08-24T02:09:53;15.10;99.90
24814;DHT22;12904;50.088;11.414;2023-08-24T02:12:19;15.10;99.90
24814;DHT22;12904;50.088;11.414;2023-08-24T02:14:44;15.10;99.90
24814;DHT22;12904;50.088;11.414;2023-08-24T02:17:10;15.10;99.90
24814;DHT22;12904;50.088;11.414;2023-08-24T02:19:36;15.10;99.90
24814;DHT22;12904;50.088;11.414;2023-08-24T02:22:04;15.10;99.90
24814;DHT22;12904;50.088;11.414;2023-08-24T02:24:30;15.10;99.90
24814;DHT22;12904;50.088;11.414;2023-08-24T02:26:55;15.10;99.90
24814;DHT22;12904;50.088;11.414;2023-08-24T02:29:21;15.10;99.90
24814;DHT22;12904;50.088;11.414;2023-08-24T02:31:49;15.10;99.90
24814;DHT22;12904;50.088;11.414;2023-08-24T02:34:15;15.10;99.90
24814;DHT22;12904;50.088;11.414;2023-08-24T02:36:40;15.00;99.90
24814;DHT22;12904;50.088;11.414;2023-08-24T02:39:06;15.00;99.90
24814;DHT22;12904;50.088;11.414;2023-08-24T02:41:33;15.00;99.90
24814;DHT22;12904;50.088;11.414;2023-08-24T02:43:59;14.90;99.90
24814;DHT22;12904;50.088;11.414;2023-08-24T02:46:25;14.90;99.90
24814;DHT22;12904;50.088;11.414;2023-08-24T02:48:50;14.90;99.90
24814;DHT22;12904;50.088;11.414;2023-08-24T02:51:16;14.90;99.90
24814;DHT22;12904;50.088;11.414;2023-08-24T02:53:41;14.80;99.90
24814;DHT22;12904;50.088;11.414;2023-08-24T02:56:07;14.80;99.90
24814;DHT22;12904;50.088;11.414;2023-08-24T02:58:33;14.80;99.90
24814;DHT22;12904;50.088;11.414;2023-08-24T03:00:58;14.80;99.90
24814;DHT22;12904;50.088;11.414;2023-08-24T03:03:24;14.80;99.90
24814;DHT22;12904;50.088;11.414;2023-08-24T03:05:58;14.80;99.90
24814;DHT22;12904;50.088;11.414;2023-08-24T03:08:24;14.70;99.90
24814;DHT22;12904;50.088;11.414;2023-08-24T03:10:50;14.70;99.90
24814;DHT22;12904;50.088;11.414;2023-08-24T03:13:16;14.70;99.90
24814;DHT22;12904;50.088;11.414;2023-08-24T03:15:42;14.70;99.90
24814;DHT22;12904;50.088;11.414;2023-08-24T03:18:09;14.60;99.90
24814;DHT22;12904;50.088;11.414;2023-08-24T03:20:35;14.60;99.90
24814;DHT22;12904;50.088;11.414;2023-08-24T03:23:01;14.60;99.90
24814;DHT22;12904;50.088;11.414;2023-08-24T03:25:26;14.50;99.90
24814;DHT22;12904;50.088;11.414;2023-08-24T03:27:52;14.50;99.90
24814;DHT22;12904;50.088;11.414;2023-08-24T03:30:17;14.50;99.90
24814;DHT22;12904;50.088;11.414;2023-08-24T03:32:43;14.50;99.90
24814;DHT22;12904;50.088;11.414;2023-08-24T03:35:09;14.50;99.90
24814;DHT22;12904;50.088;11.414;2023-08-24T03:37:34;14.50;99.90
24814;DHT22;12904;50.088;11.414;2023-08-24T03:40:00;14.50;99.90
24814;DHT22;12904;50.088;11.414;2023-08-24T03:42:25;14.50;99.90
24814;DHT22;12904;50.088;11.414;2023-08-24T03:44:51;14.50;99.90
24814;DHT22;12904;50.088;11.414;2023-08-24T03:47:17;14.50;99.90
24814;DHT22;12904;50.088;11.414;2023-08-24T03:49:43;14.40;99.90
24814;DHT22;12904;50.088;11.414;2023-08-24T03:52:09;14.50;99.90
24814;DHT22;12904;50.088;11.414;2023-08-24T03:54:34;14.40;99.90
24814;DHT22;12904;50.088;11.414;2023-08-24T03:57:01;14.40;99.90
24814;DHT22;12904;50.088;11.414;2023-08-24T03:59:27;14.40;99.90
24814;DHT22;12904;50.088;11.414;2023-08-24T04:01:52;14.40;99.90
24814;DHT22;12904;50.088;11.414;2023-08-24T04:04:18;14.40;99.90
24814;DHT22;12904;50.088;11.414;2023-08-24T04:06:44;14.40;99.90
24814;DHT22;12904;50.088;11.414;2023-08-24T04:09:09;14.40;99.90
24814;DHT22;12904;50.088;11.414;2023-08-24T04:11:36;14.40;99.90
24814;DHT22;12904;50.088;11.414;2023-08-24T04:14:01;14.40;99.90
24814;DHT22;12904;50.088;11.414;2023-08-24T04:16:27;14.40;99.90
24814;DHT22;12904;50.088;11.414;2023-08-24T04:18:53;14.40;99.90
24814;DHT22;12904;50.088;11.414;2023-08-24T04:21:18;14.40;99.90
24814;DHT22;12904;50.088;11.414;2023-08-24T04:23:44;14.40;99.90
24814;DHT22;12904;50.088;11.414;2023-08-24T04:26:14;14.30;99.90
24814;DHT22;12904;50.088;11.414;2023-08-24T04:28:40;14.30;99.90
24814;DHT22;12904;50.088;11.414;2023-08-24T04:31:05;14.40;99.90
24814;DHT22;12904;50.088;11.414;2023-08-24T04:33:31;14.40;99.90
24814;DHT22;12904;50.088;11.414;2023-08-24T04:35:57;14.40;99.90
24814;DHT22;12904;50.088;11.414;2023-08-24T04:38:23;14.40;99.90
24814;DHT22;12904;50.088;11.414;2023-08-24T04:40:55;14.40;99.90
24814;DHT22;12904;50.088;11.414;2023-08-24T04:43:22;14.40;99.90
24814;DHT22;12904;50.088;11.414;2023-08-24T04:45:49;14.40;99.90
24814;DHT22;12904;50.088;11.414;2023-08-24T04:48:16;14.40;99.90
24814;DHT22;12904;50.088;11.414;2023-08-24T04:50:43;14.40;99.90
24814;DHT22;12904;50.088;11.414;2023-08-24T04:53:09;14.40;99.90
24814;DHT22;12904;50.088;11.414;2023-08-24T04:55:35;14.40;99.90
24814;DHT22;12904;50.088;11.414;2023-08-24T04:58:00;14.40;99.90
24814;DHT22;12904;50.088;11.414;2023-08-24T05:00:26;14.50;99.90
24814;DHT22;12904;50.088;11.414;2023-08-24T05:02:52;14.50;99.90
24814;DHT22;12904;50.088;11.414;2023-08-24T05:05:17;14.50;99.90
24814;DHT22;12904;50.088;11.414;2023-08-24T05:07:43;14.50;99.90
24814;DHT22;12904;50.088;11.414;2023-08-24T05:10:08;14.50;99.90
24814;DHT22;12904;50.088;11.414;2023-08-24T05:12:34;14.60;99.90
24814;DHT22;12904;50.088;11.414;2023-08-24T05:15:04;14.60;99.90
24814;DHT22;12904;50.088;11.414;2023-08-24T05:17:30;14.70;99.90
24814;DHT22;12904;50.088;11.414;2023-08-24T05:19:57;14.70;99.90
24814;DHT22;12904;50.088;11.414;2023-08-24T05:22:23;14.80;99.90
24814;DHT22;12904;50.088;11.414;2023-08-24T05:24:49;14.80;99.90
24814;DHT22;12904;50.088;11.414;2023-08-24T05:27:14;14.80;99.90
24814;DHT22;12904;50.088;11.414;2023-08-24T05:29:41;14.90;99.90
24814;DHT22;12904;50.088;11.414;2023-08-24T05:32:07;14.90;99.90
24814;DHT22;12904;50.088;11.414;2023-08-24T05:34:32;15.00;99.90
24814;DHT22;12904;50.088;11.414;2023-08-24T05:36:58;15.00;99.90
24814;DHT22;12904;50.088;11.414;2023-08-24T05:39:23;15.10;99.90
24814;DHT22;12904;50.088;11.414;2023-08-24T05:41:52;15.20;99.90
24814;DHT22;12904;50.088;11.414;2023-08-24T05:44:19;15.30;99.90
24814;DHT22;12904;50.088;11.414;2023-08-24T05:46:46;15.40;99.90
24814;DHT22;12904;50.088;11.414;2023-08-24T05:49:14;15.40;99.90
24814;DHT22;12904;50.088;11.414;2023-08-24T05:51:40;15.50;99.90
24814;DHT22;12904;50.088;11.414;2023-08-24T05:54:06;15.60;99.90
24814;DHT22;12904;50.088;11.414;2023-08-24T05:56:31;15.70;99.90
24814;DHT22;12904;50.088;11.414;2023-08-24T05:59:00;15.80;99.90
24814;DHT22;12904;50.088;11.414;2023-08-24T06:01:26;15.90;99.90
24814;DHT22;12904;50.088;11.414;2023-08-24T06:03:51;16.00;99.90
24814;DHT22;12904;50.088;11.414;2023-08-24T06:06:17;16.00;99.90
24814;DHT22;12904;50.088;11.414;2023-08-24T06:08:43;16.10;99.90
24814;DHT22;12904;50.088;11.414;2023-08-24T06:11:09;16.10;99.90
24814;DHT22;12904;50.088;11.414;2023-08-24T06:13:34;16.20;99.90
24814;DHT22;12904;50.088;11.414;2023-08-24T06:16:00;16.30;99.90
24814;DHT22;12904;50.088;11.414;2023-08-24T06:18:27;16.30;99.90
24814;DHT22;12904;50.088;11.414;2023-08-24T06:20:53;16.40;99.90
24814;DHT22;12904;50.088;11.414;2023-08-24T06:23:19;16.50;99.90
24814;DHT22;12904;50.088;11.414;2023-08-24T06:25:45;16.60;99.90
24814;DHT22;12904;50.088;11.414;2023-08-24T06:28:11;16.80;99.90
24814;DHT22;12904;50.088;11.414;2023-08-24T06:30:38;16.90;99.90
24814;DHT22;12904;50.088;11.414;2023-08-24T06:33:05;16.90;99.90
24814;DHT22;12904;50.088;11.414;2023-08-24T06:35:33;17.00;99.90
24814;DHT22;12904;50.088;11.414;2023-08-24T06:37:58;17.10;99.90
24814;DHT22;12904;50.088;11.414;2023-08-24T06:40:24;17.20;99.90
24814;DHT22;12904;50.088;11.414;2023-08-24T06:42:50;17.30;99.90
24814;DHT22;12904;50.088;11.414;2023-08-24T06:45:15;17.40;99.90
24814;DHT22;12904;50.088;11.414;2023-08-24T06:47:43;17.50;99.90
24814;DHT22;12904;50.088;11.414;2023-08-24T06:50:10;17.70;99.90
24814;DHT22;12904;50.088;11.414;2023-08-24T06:52:35;17.90;99.90
24814;DHT22;12904;50.088;11.414;2023-08-24T06:55:02;18.00;99.90
24814;DHT22;12904;50.088;11.414;2023-08-24T06:57:27;18.10;99.90
24814;DHT22;12904;50.088;11.414;2023-08-24T06:59:53;18.20;99.90
24814;DHT22;12904;50.088;11.414;2023-08-24T07:02:19;18.40;99.90
24814;DHT22;12904;50.088;11.414;2023-08-24T07:04:44;18.60;99.90
24814;DHT22;12904;50.088;11.414;2023-08-24T07:07:10;18.70;99.90
24814;DHT22;12904;50.088;11.414;2023-08-24T07:09:36;18.70;99.90
24814;DHT22;12904;50.088;11.414;2023-08-24T07:12:02;18.80;99.90
24814;DHT22;12904;50.088;11.414;2023-08-24T07:14:29;18.90;99.90
24814;DHT22;12904;50.088;11.414;2023-08-24T07:16:57;19.00;99.90
24814;DHT22;12904;50.088;11.414;2023-08-24T07:19:22;19.20;99.90
24814;DHT22;12904;50.088;11.414;2023-08-24T07:21:48;19.30;99.90
24814;DHT22;12904;50.088;11.414;2023-08-24T07:24:14;19.50;99.90
24814;DHT22;12904;50.088;11.414;2023-08-24T07:26:40;19.90;99.90
24814;DHT22;12904;50.088;11.414;2023-08-24T07:29:07;20.20;99.90
24814;DHT22;12904;50.088;11.414;2023-08-24T07:31:33;20.60;99.90
24814;DHT22;12904;50.088;11.414;2023-08-24T07:33:58;20.80;99.90
24814;DHT22;12904;50.088;11.414;2023-08-24T07:36:24;21.00;99.90
24814;DHT22;12904;50.088;11.414;2023-08-24T07:38:50;21.10;99.90
24814;DHT22;12904;50.088;11.414;2023-08-24T07:41:15;21.10;99.90
24814;DHT22;12904;50.088;11.414;2023-08-24T07:43:43;21.00;99.90
24814;DHT22;12904;50.088;11.414;2023-08-24T07:46:09;21.00;99.90
24814;DHT22;12904;50.088;11.414;2023-08-24T07:48:36;20.80;99.90
24814;DHT22;12904;50.088;11.414;2023-08-24T07:51:01;20.70;99.90
24814;DHT22;12904;50.088;11.414;2023-08-24T07:53:27;20.60;99.90
24814;DHT22;12904;50.088;11.414;2023-08-24T07:55:54;20.60;99.90
24814;DHT22;12904;50.088;11.414;2023-08-24T07:58:23;20.60;99.90
24814;DHT22;12904;50.088;11.414;2023-08-24T08:00:51;20.60;99.90
24814;DHT22;12904;50.088;11.414;2023-08-24T08:03:20;20.70;99.90
24814;DHT22;12904;50.088;11.414;2023-08-24T08:05:46;20.80;99.90
24814;DHT22;12904;50.088;11.414;2023-08-24T08:08:15;20.90;99.90
24814;DHT22;12904;50.088;11.414;2023-08-24T08:10:41;20.90;99.90
24814;DHT22;12904;50.088;11.414;2023-08-24T08:13:08;21.00;99.90
24814;DHT22;12904;50.088;11.414;2023-08-24T08:15:36;21.10;99.90
24814;DHT22;12904;50.088;11.414;2023-08-24T08:18:04;21.20;99.90
24814;DHT22;12904;50.088;11.414;2023-08-24T08:20:30;21.30;99.90
24814;DHT22;12904;50.088;11.414;2023-08-24T08:22:56;21.40;99.90
24814;DHT22;12904;50.088;11.414;2023-08-24T08:25:21;21.50;99.90
24814;DHT22;12904;50.088;11.414;2023-08-24T08:27:48;21.60;99.90
24814;DHT22;12904;50.088;11.414;2023-08-24T08:30:14;21.70;99.90
24814;DHT22;12904;50.088;11.414;2023-08-24T08:32:41;21.80;99.90
24814;DHT22;12904;50.088;11.414;2023-08-24T08:35:08;21.90;99.90
24814;DHT22;12904;50.088;11.414;2023-08-24T08:37:34;22.00;99.90
24814;DHT22;12904;50.088;11.414;2023-08-24T08:39:59;22.10;99.90
24814;DHT22;12904;50.088;11.414;2023-08-24T08:42:25;22.20;99.90
24814;DHT22;12904;50.088;11.414;2023-08-24T08:44:51;22.30;99.90
24814;DHT22;12904;50.088;11.414;2023-08-24T08:47:20;22.50;99.90
24814;DHT22;12904;50.088;11.414;2023-08-24T08:49:49;22.60;99.90
24814;DHT22;12904;50.088;11.414;2023-08-24T08:52:16;22.90;99.90
24814;DHT22;12904;50.088;11.414;2023-08-24T08:54:41;23.30;99.90
24814;DHT22;12904;50.088;11.414;2023-08-24T08:57:07;23.50;99.90
24814;DHT22;12904;50.088;11.414;2023-08-24T08:59:33;23.80;99.90
24814;DHT22;12904;50.088;11.414;2023-08-24T09:02:03;23.90;99.90
24814;DHT22;12904;50.088;11.414;2023-08-24T09:04:33;24.10;99.90
24814;DHT22;12904;50.088;11.414;2023-08-24T09:06:59;24.40;99.90
24814;DHT22;12904;50.088;11.414;2023-08-24T09:09:29;24.70;99.90
24814;DHT22;12904;50.088;11.414;2023-08-24T09:11:55;24.90;99.90
24814;DHT22;12904;50.088;11.414;2023-08-24T09:14:21;25.00;99.90
24814;DHT22;12904;50.088;11.414;2023-08-24T09:16:47;25.20;99.90
24814;DHT22;12904;50.088;11.414;2023-08-24T09:19:12;25.40;99.90
24814;DHT22;12904;50.088;11.414;2023-08-24T09:21:39;25.60;99.90
24814;DHT22;12904;50.088;11.414;2023-08-24T09:24:07;26.00;99.90
24814;DHT22;12904;50.088;11.414;2023-08-24T09:26:34;26.20;99.90
24814;DHT22;12904;50.088;11.414;2023-08-24T09:29:05;26.30;99.90
24814;DHT22;12904;50.088;11.414;2023-08-24T09:31:37;26.20;99.90
24814;DHT22;12904;50.088;11.414;2023-08-24T09:34:03;26.00;99.90
24814;DHT22;12904;50.088;11.414;2023-08-24T09:36:33;25.90;99.90
24814;DHT22;12904;50.088;11.414;2023-08-24T09:38:59;25.80;99.90
24814;DHT22;12904;50.088;11.414;2023-08-24T09:41:48;25.70;99.90
24814;DHT22;12904;50.088;11.414;2023-08-24T09:44:14;25.80;99.90
24814;DHT22;12904;50.088;11.414;2023-08-24T09:46:40;26.10;99.90
24814;DHT22;12904;50.088;11.414;2023-08-24T09:49:12;26.30;99.90
24814;DHT22;12904;50.088;11.414;2023-08-24T09:51:39;26.50;99.90
24814;DHT22;12904;50.088;11.414;2023-08-24T09:54:07;26.50;99.90
24814;DHT22;12904;50.088;11.414;2023-08-24T09:56:38;26.50;99.90
24814;DHT22;12904;50.088;11.414;2023-08-24T09:59:15;26.70;99.90
24814;DHT22;12904;50.088;11.414;2023-08-24T10:01:44;26.90;99.90
24814;DHT22;12904;50.088;11.414;2023-08-24T10:04:14;27.00;99.90
24814;DHT22;12904;50.088;11.414;2023-08-24T10:06:40;26.90;99.90
24814;DHT22;12904;50.088;11.414;2023-08-24T10:09:27;26.90;99.90
24814;DHT22;12904;50.088;11.414;2023-08-24T10:11:59;27.00;97.30
24814;DHT22;12904;50.088;11.414;2023-08-24T10:14:30;27.20;99.90
24814;DHT22;12904;50.088;11.414;2023-08-24T10:16:57;27.50;99.90
24814;DHT22;12904;50.088;11.414;2023-08-24T10:19:24;27.70;94.70
24814;DHT22;12904;50.088;11.414;2023-08-24T10:21:53;27.70;97.20
24814;DHT22;12904;50.088;11.414;2023-08-24T10:24:19;27.60;99.90
24814;DHT22;12904;50.088;11.414;2023-08-24T10:26:46;27.70;99.90
24814;DHT22;12904;50.088;11.414;2023-08-24T10:29:13;27.70;99.90
24814;DHT22;12904;50.088;11.414;2023-08-24T10:31:40;27.80;99.90
24814;DHT22;12904;50.088;11.414;2023-08-24T10:34:07;27.90;99.90
24814;DHT22;12904;50.088;11.414;2023-08-24T10:36:34;27.90;93.80
24814;DHT22;12904;50.088;11.414;2023-08-24T10:39:02;27.90;94.70
24814;DHT22;12904;50.088;11.414;2023-08-24T10:41:51;27.90;94.60
24814;DHT22;12904;50.088;11.414;2023-08-24T10:44:35;27.80;99.90
24814;DHT22;12904;50.088;11.414;2023-08-24T10:49:37;27.80;98.60
24814;DHT22;12904;50.088;11.414;2023-08-24T10:52:25;28.00;99.90
24814;DHT22;12904;50.088;11.414;2023-08-24T10:54:53;28.20;87.80
24814;DHT22;12904;50.088;11.414;2023-08-24T10:57:37;28.40;91.80
24814;DHT22;12904;50.088;11.414;2023-08-24T11:02:40;28.20;82.10
24814;DHT22;12904;50.088;11.414;2023-08-24T11:07:56;27.90;78.50
24814;DHT22;12904;50.088;11.414;2023-08-24T11:10:24;27.80;83.40
24814;DHT22;12904;50.088;11.414;2023-08-24T11:18:21;27.70;83.60
24814;DHT22;12904;50.088;11.414;2023-08-24T11:20:57;27.70;73.50
24814;DHT22;12904;50.088;11.414;2023-08-24T11:23:25;27.70;77.80
24814;DHT22;12904;50.088;11.414;2023-08-24T11:25:52;27.80;82.00
24814;DHT22;12904;50.088;11.414;2023-08-24T11:28:21;27.90;92.50
24814;DHT22;12904;50.088;11.414;2023-08-24T11:30:47;28.00;89.30
24814;DHT22;12904;50.088;11.414;2023-08-24T11:33:13;28.00;73.80
24814;DHT22;12904;50.088;11.414;2023-08-24T11:35:44;28.10;79.20
24814;DHT22;12904;50.088;11.414;2023-08-24T11:38:11;28.20;80.60
24814;DHT22;12904;50.088;11.414;2023-08-24T11:40:36;28.30;81.10
24814;DHT22;12904;50.088;11.414;2023-08-24T11:43:03;28.40;74.80
24814;DHT22;12904;50.088;11.414;2023-08-24T11:45:33;28.50;78.10
24814;DHT22;12904;50.088;11.414;2023-08-24T11:47:59;28.50;73.60
24814;DHT22;12904;50.088;11.414;2023-08-24T11:50:26;28.50;71.30
24814;DHT22;12904;50.088;11.414;2023-08-24T11:52:53;28.60;73.40
24814;DHT22;12904;50.088;11.414;2023-08-24T11:55:21;28.60;73.20
24814;DHT22;12904;50.088;11.414;2023-08-24T11:57:47;28.80;67.90
24814;DHT22;12904;50.088;11.414;2023-08-24T12:00:13;28.80;68.00
24814;DHT22;12904;50.088;11.414;2023-08-24T12:02:40;28.90;69.40
24814;DHT22;12904;50.088;11.414;2023-08-24T12:05:07;28.90;68.90
24814;DHT22;12904;50.088;11.414;2023-08-24T12:07:33;28.90;71.70
24814;DHT22;12904;50.088;11.414;2023-08-24T12:10:02;29.00;70.80
24814;DHT22;12904;50.088;11.414;2023-08-24T12:12:28;29.10;74.50
24814;DHT22;12904;50.088;11.414;2023-08-24T12:14:55;29.30;70.70
24814;DHT22;12904;50.088;11.414;2023-08-24T12:17:23;29.30;77.10
24814;DHT22;12904;50.088;11.414;2023-08-24T12:19:59;29.50;71.80
24814;DHT22;12904;50.088;11.414;2023-08-24T12:22:25;29.30;69.30
24814;DHT22;12904;50.088;11.414;2023-08-24T12:24:51;29.30;66.30
24814;DHT22;12904;50.088;11.414;2023-08-24T12:27:26;29.40;69.70
24814;DHT22;12904;50.088;11.414;2023-08-24T12:29:53;29.40;71.20
24814;DHT22;12904;50.088;11.414;2023-08-24T12:32:20;29.60;68.30
24814;DHT22;12904;50.088;11.414;2023-08-24T12:34:47;29.60;66.30
24814;DHT22;12904;50.088;11.414;2023-08-24T12:37:13;29.60;70.30
24814;DHT22;12904;50.088;11.414;2023-08-24T12:39:39;29.60;68.40
24814;DHT22;12904;50.088;11.414;2023-08-24T12:42:05;29.50;68.00
24814;DHT22;12904;50.088;11.414;2023-08-24T12:44:31;29.50;66.50
24814;DHT22;12904;50.088;11.414;2023-08-24T12:46:58;29.40;69.00
24814;DHT22;12904;50.088;11.414;2023-08-24T12:49:27;29.40;62.80
24814;DHT22;12904;50.088;11.414;2023-08-24T12:51:53;29.50;69.70
24814;DHT22;12904;50.088;11.414;2023-08-24T12:54:18;29.60;62.90
24814;DHT22;12904;50.088;11.414;2023-08-24T12:56:44;29.70;65.30
24814;DHT22;12904;50.088;11.414;2023-08-24T12:59:09;29.70;70.00
24814;DHT22;12904;50.088;11.414;2023-08-24T13:01:35;29.80;66.00
24814;DHT22;12904;50.088;11.414;2023-08-24T13:04:01;29.80;67.60
24814;DHT22;12904;50.088;11.414;2023-08-24T13:06:26;29.80;64.00
24814;DHT22;12904;50.088;11.414;2023-08-24T13:08:55;29.80;69.80
24814;DHT22;12904;50.088;11.414;2023-08-24T13:11:21;29.80;68.20
24814;DHT22;12904;50.088;11.414;2023-08-24T13:13:48;29.80;67.40
24814;DHT22;12904;50.088;11.414;2023-08-24T13:16:14;29.80;63.60
24814;DHT22;12904;50.088;11.414;2023-08-24T13:18:40;29.70;67.10
24814;DHT22;12904;50.088;11.414;2023-08-24T13:21:06;29.50;65.30
24814;DHT22;12904;50.088;11.414;2023-08-24T13:23:32;29.40;72.00
24814;DHT22;12904;50.088;11.414;2023-08-24T13:25:58;29.40;62.30
24814;DHT22;12904;50.088;11.414;2023-08-24T13:28:24;29.30;61.50
24814;DHT22;12904;50.088;11.414;2023-08-24T13:30:50;29.30;63.50
24814;DHT22;12904;50.088;11.414;2023-08-24T13:33:15;29.20;57.80
24814;DHT22;12904;50.088;11.414;2023-08-24T13:35:41;29.10;63.50
24814;DHT22;12904;50.088;11.414;2023-08-24T13:38:07;29.00;59.10
24814;DHT22;12904;50.088;11.414;2023-08-24T13:40:32;29.00;57.30
24814;DHT22;12904;50.088;11.414;2023-08-24T13:42:58;29.20;61.40
24814;DHT22;12904;50.088;11.414;2023-08-24T13:45:24;29.40;60.70
24814;DHT22;12904;50.088;11.414;2023-08-24T13:47:50;29.60;62.90
24814;DHT22;12904;50.088;11.414;2023-08-24T13:50:15;29.70;58.80
24814;DHT22;12904;50.088;11.414;2023-08-24T13:52:41;29.70;56.20
24814;DHT22;12904;50.088;11.414;2023-08-24T13:55:07;29.70;58.10
24814;DHT22;12904;50.088;11.414;2023-08-24T13:57:33;29.70;56.80
24814;DHT22;12904;50.088;11.414;2023-08-24T13:59:58;29.70;58.20
24814;DHT22;12904;50.088;11.414;2023-08-24T14:02:25;29.80;56.50
24814;DHT22;12904;50.088;11.414;2023-08-24T14:04:50;30.00;56.60
24814;DHT22;12904;50.088;11.414;2023-08-24T14:07:16;30.00;62.90
24814;DHT22;12904;50.088;11.414;2023-08-24T14:09:42;30.00;59.00
24814;DHT22;12904;50.088;11.414;2023-08-24T14:12:07;30.00;63.70
24814;DHT22;12904;50.088;11.414;2023-08-24T14:14:33;29.90;58.90
24814;DHT22;12904;50.088;11.414;2023-08-24T14:16:58;29.80;57.30
24814;DHT22;12904;50.088;11.414;2023-08-24T14:19:24;29.80;57.30
24814;DHT22;12904;50.088;11.414;2023-08-24T14:21:52;29.90;58.20
24814;DHT22;12904;50.088;11.414;2023-08-24T14:24:17;30.00;56.60
24814;DHT22;12904;50.088;11.414;2023-08-24T14:26:43;30.10;58.30
24814;DHT22;12904;50.088;11.414;2023-08-24T14:29:12;30.30;58.10
24814;DHT22;12904;50.088;11.414;2023-08-24T14:31:39;30.40;65.00
24814;DHT22;12904;50.088;11.414;2023-08-24T14:34:05;30.50;61.70
24814;DHT22;12904;50.088;11.414;2023-08-24T14:36:31;30.70;56.90
24814;DHT22;12904;50.088;11.414;2023-08-24T14:38:57;30.80;57.30
24814;DHT22;12904;50.088;11.414;2023-08-24T14:41:23;30.70;56.70
24814;DHT22;12904;50.088;11.414;2023-08-24T14:43:49;30.60;61.00
24814;DHT22;12904;50.088;11.414;2023-08-24T14:46:14;30.60;58.40
24814;DHT22;12904;50.088;11.414;2023-08-24T14:48:40;30.50;58.00
24814;DHT22;12904;50.088;11.414;2023-08-24T14:51:06;30.40;58.20
24814;DHT22;12904;50.088;11.414;2023-08-24T14:53:31;30.30;58.00
24814;DHT22;12904;50.088;11.414;2023-08-24T14:55:57;30.20;58.90
24814;DHT22;12904;50.088;11.414;2023-08-24T14:58:25;30.20;59.40
24814;DHT22;12904;50.088;11.414;2023-08-24T15:00:52;30.00;60.10
24814;DHT22;12904;50.088;11.414;2023-08-24T15:03:19;29.80;67.70
24814;DHT22;12904;50.088;11.414;2023-08-24T15:05:46;29.70;67.80
24814;DHT22;12904;50.088;11.414;2023-08-24T15:08:20;29.70;68.80
24814;DHT22;12904;50.088;11.414;2023-08-24T15:10:48;29.50;72.30
24814;DHT22;12904;50.088;11.414;2023-08-24T15:13:14;29.40;70.70
24814;DHT22;12904;50.088;11.414;2023-08-24T15:15:39;29.20;67.60
24814;DHT22;12904;50.088;11.414;2023-08-24T15:18:05;29.20;64.60
24814;DHT22;12904;50.088;11.414;2023-08-24T15:20:31;29.10;70.80
24814;DHT22;12904;50.088;11.414;2023-08-24T15:23:00;28.90;73.70
24814;DHT22;12904;50.088;11.414;2023-08-24T15:25:26;28.80;75.30
24814;DHT22;12904;50.088;11.414;2023-08-24T15:27:51;28.70;79.30
24814;DHT22;12904;50.088;11.414;2023-08-24T15:30:17;28.50;85.90
24814;DHT22;12904;50.088;11.414;2023-08-24T15:32:43;28.30;92.80